Time;durP1;ratioP1;P1;durP2;ratioP2;P2;SDS_P1;SDS_P2;PMS_P1;PMS_P2;Temp;Humidity;BMP_temperature;BMP_pressure;BME280_temperature;BME280_humidity;BME280_pressure;Samples;Min_cycle;Max_cycle;Signal;HPM_P1;HPM_P2
2022/07/09 00:00:06;;;;;;;;;;;22.10;67.10;;;21.55;62.40;96256.41;4204994;33;20117;-85
2022/07/09 00:02:40;;;;;;;;;;;22.10;67.10;;;21.54;62.22;96263.97;4204703;33;19915;-85
2022/07/09 00:05:30;;;;;;;;;;;22.10;67.20;;;21.53;62.19;96262.34;4182383;33;19903;-85
2022/07/09 00:07:59;;;;;;;;;;;22.10;67.20;;;21.54;62.26;96260.34;4181659;33;19902;-86
2022/07/09 00:10:28;;;;;;;;;;;22.10;67.20;;;21.53;62.26;96258.72;4204773;33;20125;-86
2022/07/09 00:12:57;;;;;;;;;;;22.10;67.20;;;21.55;62.19;96264.78;4181162;33;19910;-86
2022/07/09 00:15:26;;;;;;;;;;;22.10;67.10;;;21.53;62.11;96247.56;4204792;33;19910;-86
2022/07/09 00:17:56;;;;;;;;;;;22.10;67.20;;;21.51;62.27;96258.25;4181445;33;20156;-86
2022/07/09 00:20:25;;;;;;;;;;;22.10;67.20;;;21.54;62.38;96246.44;4181678;33;20175;-86
2022/07/09 00:22:54;;;;;;;;;;;22.10;67.20;;;21.54;62.16;96246.44;4181338;33;19910;-86
2022/07/09 00:25:23;;;;;;;;;;;22.10;67.20;;;21.53;62.12;96244.78;4204638;33;20209;-86
2022/07/09 00:27:52;;;;;;;;;;;22.10;67.00;;;21.52;62.10;96243.16;4181602;33;20213;-86
2022/07/09 00:30:23;;;;;;;;;;;22.10;67.00;;;21.52;61.97;96248.72;4181369;33;20033;-86
2022/07/09 00:32:52;;;;;;;;;;;22.10;67.10;;;21.52;61.94;96246.78;4204348;33;19968;-86
2022/07/09 00:35:25;;;;;;;;;;;22.10;66.90;;;21.52;61.83;96257.09;4181673;33;20066;-85
2022/07/09 00:37:54;;;;;;;;;;;22.10;66.90;;;21.49;62.03;96255.81;4204694;33;19903;-85
2022/07/09 00:40:23;;;;;;;;;;;22.10;66.80;;;21.52;62.11;96262.66;4176485;34;20137;-85
2022/07/09 00:42:52;;;;;;;;;;;22.10;66.90;;;21.51;61.94;96261.84;4153501;34;19903;-86
2022/07/09 00:45:21;;;;;;;;;;;22.10;66.80;;;21.50;62.03;96260.22;4153672;34;19910;-86
2022/07/09 00:47:49;;;;;;;;;;;22.10;67.00;;;21.49;62.26;96264.16;4153568;34;20206;-86
2022/07/09 00:50:18;;;;;;;;;;;22.10;67.10;;;21.51;61.96;96269.38;4176254;34;19903;-86
2022/07/09 00:52:51;;;;;;;;;;;22.10;67.10;;;21.50;62.11;96271.38;4176225;34;19959;-85
2022/07/09 00:55:19;;;;;;;;;;;22.10;67.10;;;21.49;62.15;96257.78;4176528;34;19903;-86
2022/07/09 00:57:48;;;;;;;;;;;22.10;67.10;;;21.50;62.29;96264.97;4177682;34;20028;-85
2022/07/09 01:00:18;;;;;;;;;;;22.10;67.20;;;21.49;62.11;96258.59;4176637;34;19903;-86
2022/07/09 01:02:47;;;;;;;;;;;22.10;67.10;;;21.50;62.24;96262.19;4176457;34;19948;-86
2022/07/09 01:05:17;;;;;;;;;;;22.10;67.10;;;21.49;62.05;96260.56;4176719;34;19907;-86
2022/07/09 01:07:46;;;;;;;;;;;22.10;67.20;;;21.50;62.39;96264.97;4199994;33;20091;-86
2022/07/09 01:10:16;;;;;;;;;;;22.10;67.20;;;21.48;62.23;96262.53;4200037;33;20255;-86
2022/07/09 01:12:46;;;;;;;;;;;22.10;67.30;;;21.48;62.33;96253.38;4181252;33;20375;-86
2022/07/09 01:15:14;;;;;;;;;;;22.10;67.30;;;21.49;62.29;96263.38;4204309;33;19909;-86
2022/07/09 01:17:43;;;;;;;;;;;22.10;68.00;;;21.48;62.36;96256.97;4181308;33;20046;-86
2022/07/09 01:20:13;;;;;;;;;;;22.10;67.30;;;21.48;62.48;96262.53;4204175;33;19910;-86
2022/07/09 01:22:43;;;;;;;;;;;22.10;67.40;;;21.48;62.39;96258.94;4180561;33;19902;-86
2022/07/09 01:25:12;;;;;;;;;;;22.10;67.40;;;21.48;62.63;96258.94;4204236;33;19903;-86
2022/07/09 01:27:40;;;;;;;;;;;22.10;67.50;;;21.48;62.53;96253.38;4204010;33;19910;-85
2022/07/09 01:30:10;;;;;;;;;;;22.10;67.50;;;21.46;62.32;96254.53;4181016;33;19903;-86
2022/07/09 01:32:39;;;;;;;;;;;22.10;67.40;;;21.46;62.74;96257.31;4203500;33;19903;-85
2022/07/09 01:35:09;;;;;;;;;;;22.10;67.50;;;21.47;62.54;96258.13;4181078;33;20067;-86
2022/07/09 01:37:38;;;;;;;;;;;22.10;67.50;;;21.46;62.70;96260.09;4180861;33;20080;-85
2022/07/09 01:40:10;;;;;;;;;;;22.10;67.60;;;21.45;62.63;96255.69;4181906;33;19925;-86
2022/07/09 01:42:38;;;;;;;;;;;22.10;67.70;;;21.45;62.79;96261.25;4205854;33;19907;-85
2022/07/09 01:45:08;;;;;;;;;;;22.10;68.10;;;21.45;62.78;96264.03;4206192;33;19902;-86
2022/07/09 01:47:37;;;;;;;;;;;22.10;67.70;;;21.46;62.70;96260.09;4183310;33;20010;-85
2022/07/09 01:50:07;;;;;;;;;;;22.00;67.50;;;21.45;62.54;96261.25;4206339;33;19904;-86
2022/07/09 01:52:36;;;;;;;;;;;22.10;67.60;;;21.43;62.57;96260.78;4182752;33;20156;-85
2022/07/09 01:55:08;;;;;;;;;;;22.10;67.60;;;21.44;62.75;96262.41;4206281;33;20288;-86
2022/07/09 01:57:39;;;;;;;;;;;22.00;67.60;;;21.44;62.64;96265.19;4206300;33;20244;-85
2022/07/09 02:00:09;;;;;;;;;;;22.00;67.60;;;21.43;62.37;96259.94;4178087;34;19910;-85
2022/07/09 02:02:45;;;;;;;;;;;22.00;68.40;;;21.44;62.69;96259.63;4177894;34;19910;-85
2022/07/09 02:05:14;;;;;;;;;;;22.00;67.60;;;21.43;62.58;96266.34;4155516;34;19988;-85
2022/07/09 02:07:42;;;;;;;;;;;22.00;67.50;;;21.43;62.67;96258.00;4155212;34;19910;-86
2022/07/09 02:10:13;;;;;;;;;;;22.00;67.60;;;21.41;62.83;96246.38;4177445;34;19918;-85
2022/07/09 02:12:41;;;;;;;;;;;22.00;67.60;;;21.42;62.60;96250.78;4177078;34;20013;-86
2022/07/09 02:15:12;;;;;;;;;;;22.00;67.70;;;21.41;62.64;96240.78;4186185;33;20180;-85
2022/07/09 02:17:41;;;;;;;;;;;22.00;67.70;;;21.42;62.91;96248.00;4182879;33;19925;-85
2022/07/09 02:20:11;;;;;;;;;;;22.00;67.70;;;21.42;62.68;96250.78;4182903;33;19983;-86
2022/07/09 02:22:40;;;;;;;;;;;22.00;67.60;;;21.41;62.51;96249.16;4182607;33;19918;-86
2022/07/09 02:25:10;;;;;;;;;;;22.00;67.60;;;21.41;62.85;96249.16;4182686;33;20047;-86
2022/07/09 02:27:42;;;;;;;;;;;22.00;67.70;;;21.40;62.69;96244.75;4183180;33;20011;-86
2022/07/09 02:30:12;;;;;;;;;;;22.00;67.60;;;21.39;62.77;96231.97;4182757;33;20218;-86
2022/07/09 02:32:41;;;;;;;;;;;22.00;67.70;;;21.39;62.86;96231.97;4205622;33;20125;-86
2022/07/09 02:35:11;;;;;;;;;;;22.00;67.70;;;21.38;62.75;96241.47;4183186;33;20054;-86
2022/07/09 02:37:41;;;;;;;;;;;22.00;67.60;;;21.39;62.85;96243.09;4182794;33;19903;-86
2022/07/09 02:40:11;;;;;;;;;;;22.00;67.70;;;21.38;62.83;96235.91;4205965;33;20218;-87
2022/07/09 02:42:41;;;;;;;;;;;22.00;67.70;;;21.39;62.90;96240.31;4205330;33;20501;-86
2022/07/09 02:45:10;;;;;;;;;;;22.00;67.70;;;21.38;62.71;96241.47;4182784;33;19956;-86
2022/07/09 02:47:39;;;;;;;;;;;22.00;67.70;;;21.38;62.93;96243.47;4205646;33;20137;-87
2022/07/09 02:50:09;;;;;;;;;;;22.00;67.80;;;21.38;62.64;96247.03;4205416;33;20274;-86
2022/07/09 02:52:38;;;;;;;;;;;22.00;67.70;;;21.35;62.82;96244.97;4177224;34;20214;-87
2022/07/09 02:55:07;;;;;;;;;;;22.00;67.80;;;21.38;62.76;96249.03;4177785;34;19910;-87
2022/07/09 02:57:36;;;;;;;;;;;22.00;67.70;;;21.37;62.83;96250.19;4177789;34;20093;-86
2022/07/09 03:00:08;;;;;;;;;;;22.00;67.80;;;21.35;62.83;96247.75;4177569;34;20459;-86
2022/07/09 03:02:40;;;;;;;;;;;22.00;67.80;;;21.36;62.91;96254.94;4200462;33;20177;-87
2022/07/09 03:05:10;;;;;;;;;;;22.00;67.70;;;21.37;62.80;96255.75;4178132;34;20357;-86
2022/07/09 03:07:39;;;;;;;;;;;22.00;67.90;;;21.36;62.79;96252.16;4154744;34;19918;-86
2022/07/09 03:10:08;;;;;;;;;;;22.00;67.90;;;21.35;62.95;96247.75;4177510;34;20316;-86
2022/07/09 03:12:37;;;;;;;;;;;22.00;67.90;;;21.36;62.91;96254.94;4154294;34;20165;-86
2022/07/09 03:15:09;;;;;;;;;;;22.00;67.90;;;21.36;62.94;96259.69;4177531;34;20134;-86
2022/07/09 03:17:38;;;;;;;;;;;22.00;67.90;;;21.36;63.04;96254.94;4154596;34;20083;-86
2022/07/09 03:20:08;;;;;;;;;;;22.00;68.00;;;21.36;63.07;96263.31;4177462;34;20045;-87
2022/07/09 03:22:36;;;;;;;;;;;22.00;67.90;;;21.36;63.14;96259.69;4200265;33;20030;-86
2022/07/09 03:25:06;;;;;;;;;;;22.00;67.80;;;21.35;62.70;96253.31;4177527;34;20012;-86
2022/07/09 03:27:35;;;;;;;;;;;22.00;67.90;;;21.35;62.92;96250.53;4198516;33;20388;-86
2022/07/09 03:30:04;;;;;;;;;;;22.00;68.00;;;21.35;62.95;96247.75;4205148;33;20115;-86
2022/07/09 03:32:35;;;;;;;;;;;22.00;67.90;;;21.34;63.08;96251.69;4181587;33;20059;-87
2022/07/09 03:35:04;;;;;;;;;;;22.00;68.00;;;21.34;63.02;96262.81;4182178;33;19945;-87
2022/07/09 03:37:33;;;;;;;;;;;22.00;68.00;;;21.35;63.17;96247.75;4205229;33;19902;-87
2022/07/09 03:40:02;;;;;;;;;;;22.00;68.00;;;21.34;63.14;96257.25;4181938;33;20244;-86
2022/07/09 03:42:30;;;;;;;;;;;21.90;67.90;;;21.35;62.98;96258.06;4181597;33;20144;-86
2022/07/09 03:44:59;;;;;;;;;;;22.00;67.90;;;21.33;63.04;96263.97;4181823;33;20226;-86
2022/07/09 03:47:28;;;;;;;;;;;21.90;68.00;;;21.34;62.62;96262.00;4205084;33;19942;-87
2022/07/09 03:49:58;;;;;;;;;;;21.90;68.00;;;21.35;62.53;96261.66;4204814;33;19922;-86
2022/07/09 03:52:26;;;;;;;;;;;22.00;68.00;;;21.36;62.97;96265.25;4181237;33;19998;-86
2022/07/09 03:54:55;;;;;;;;;;;22.00;67.90;;;21.36;62.75;96266.09;4204958;33;20111;-87
2022/07/09 03:57:25;;;;;;;;;;;21.90;68.00;;;21.34;62.92;96268.38;4204981;33;20218;-86
2022/07/09 03:59:53;;;;;;;;;;;22.00;67.90;;;21.35;62.96;96267.25;4205667;33;20137;-86
2022/07/09 04:02:24;;;;;;;;;;;22.00;67.90;;;21.35;62.91;96264.44;4195694;28;23082;-82
2022/07/09 04:04:56;;;;;;;;;;;22.00;67.90;;;21.35;62.86;96264.44;4224881;33;19966;-81
2022/07/09 04:07:26;;;;;;;;;;;22.00;67.90;;;21.35;62.92;96270.03;4233043;33;19902;-81
2022/07/09 04:09:55;;;;;;;;;;;22.00;67.80;;;21.35;63.09;96269.19;4233278;33;19917;-81
2022/07/09 04:12:23;;;;;;;;;;;22.00;67.90;;;21.36;62.99;96259.69;4232114;33;19917;-82
2022/07/09 04:14:52;;;;;;;;;;;22.00;68.00;;;21.35;63.03;96264.44;4209311;33;20005;-81
2022/07/09 04:17:21;;;;;;;;;;;22.00;68.00;;;21.35;62.87;96264.44;4232916;33;19979;-82
2022/07/09 04:19:49;;;;;;;;;;;22.00;67.90;;;21.34;62.77;96259.19;4232660;33;19910;-82
2022/07/09 04:22:18;;;;;;;;;;;22.00;67.90;;;21.35;63.23;96266.41;4208864;33;20225;-82
2022/07/09 04:24:48;;;;;;;;;;;22.00;68.00;;;21.34;62.74;96262.81;4209335;33;19909;-82
2022/07/09 04:27:17;;;;;;;;;;;21.90;67.90;;;21.34;63.06;96262.81;4209460;33;19902;-81
2022/07/09 04:29:46;;;;;;;;;;;22.00;67.90;;;21.34;62.96;96268.38;4209323;33;19990;-82
2022/07/09 04:32:15;;;;;;;;;;;21.90;67.90;;;21.34;62.78;96273.97;4232245;33;19906;-82
2022/07/09 04:34:44;;;;;;;;;;;21.90;67.90;;;21.33;62.94;96258.41;4232701;33;20051;-82
2022/07/09 04:37:12;;;;;;;;;;;21.90;68.00;;;21.33;63.41;96266.75;4209231;33;19909;-82
2022/07/09 04:39:41;;;;;;;;;;;22.00;67.90;;;21.34;62.85;96267.56;4232723;33;19903;-82
2022/07/09 04:42:12;;;;;;;;;;;21.90;67.90;;;21.33;62.84;96261.19;4208704;33;20070;-82
2022/07/09 04:44:42;;;;;;;;;;;21.90;67.90;;;21.34;62.98;96262.81;4208782;33;19910;-82
2022/07/09 04:47:11;;;;;;;;;;;21.90;68.00;;;21.33;63.04;96272.31;4209249;33;19982;-82
2022/07/09 04:49:40;;;;;;;;;;;21.90;68.00;;;21.34;62.99;96279.53;4209078;33;19949;-81
2022/07/09 04:52:09;;;;;;;;;;;21.90;68.00;;;21.33;62.89;96277.91;4208714;33;19902;-82
2022/07/09 04:54:38;;;;;;;;;;;21.90;67.90;;;21.33;62.95;96275.09;4232631;33;19910;-82
2022/07/09 04:57:07;;;;;;;;;;;22.00;67.90;;;21.33;62.86;96275.09;4209083;33;20060;-82
2022/07/09 04:59:37;;;;;;;;;;;21.90;68.70;;;21.31;62.82;96281.00;4232472;33;19903;-82
2022/07/09 05:02:06;;;;;;;;;;;22.00;67.90;;;21.33;63.09;96283.47;4231973;33;19925;-82
2022/07/09 05:04:35;;;;;;;;;;;21.90;68.00;;;21.34;62.79;96284.25;4232380;33;20160;-82
2022/07/09 05:07:05;;;;;;;;;;;21.90;67.90;;;21.34;63.25;96287.06;4209057;33;19902;-82
2022/07/09 05:09:34;;;;;;;;;;;21.90;67.90;;;21.34;63.08;96284.25;4232560;33;19902;-82
2022/07/09 05:12:02;;;;;;;;;;;21.90;67.90;;;21.33;63.13;96283.47;4208534;33;20085;-81
2022/07/09 05:14:31;;;;;;;;;;;21.90;68.00;;;21.33;63.04;96283.47;4209643;33;19903;-82
2022/07/09 05:17:01;;;;;;;;;;;22.00;68.10;;;21.34;62.91;96279.53;4234989;33;20069;-82
2022/07/09 05:19:30;;;;;;;;;;;21.90;68.00;;;21.34;62.95;96287.88;4211211;33;19939;-82
2022/07/09 05:21:59;;;;;;;;;;;22.00;68.00;;;21.33;63.11;96280.69;4211081;33;19960;-81
2022/07/09 05:24:27;;;;;;;;;;;22.00;68.00;;;21.34;63.13;96279.53;4211407;33;19903;-82
2022/07/09 05:26:56;;;;;;;;;;;21.90;68.20;;;21.34;63.10;96293.44;4235094;33;19902;-82
2022/07/09 05:29:26;;;;;;;;;;;22.00;68.20;;;21.34;63.11;96289.84;4235654;33;19902;-81
2022/07/09 05:31:57;;;;;;;;;;;22.00;68.00;;;21.34;63.33;96287.88;4234024;33;20086;-81
2022/07/09 05:34:27;;;;;;;;;;;21.90;68.20;;;21.34;63.37;96292.63;4234630;33;19902;-82
2022/07/09 05:36:56;;;;;;;;;;;21.90;68.30;;;21.34;63.27;96296.22;4234767;33;19903;-82
2022/07/09 05:39:25;;;;;;;;;;;22.00;68.30;;;21.33;63.09;96289.03;4210981;33;19921;-81
2022/07/09 05:41:54;;;;;;;;;;;21.90;68.20;;;21.34;63.20;96295.41;4210732;33;19909;-82
2022/07/09 05:44:22;;;;;;;;;;;21.90;68.20;;;21.34;63.02;96290.66;4234610;33;20142;-82
2022/07/09 05:46:51;;;;;;;;;;;22.00;68.10;;;21.32;63.21;96290.19;4235590;33;20218;-81
2022/07/09 05:49:20;;;;;;;;;;;21.90;68.30;;;21.34;63.28;96296.22;4210853;33;19932;-82
2022/07/09 05:51:50;;;;;;;;;;;21.90;68.30;;;21.33;63.16;96302.94;4234838;33;19909;-82
2022/07/09 05:54:19;;;;;;;;;;;21.90;68.20;;;21.33;63.04;96299.34;4210993;33;19902;-82
2022/07/09 05:56:47;;;;;;;;;;;21.90;68.20;;;21.31;63.43;96292.13;4211166;33;19902;-81
2022/07/09 05:59:16;;;;;;;;;;;21.90;68.20;;;21.32;63.17;96301.31;4211001;33;20220;-82
2022/07/09 06:01:45;;;;;;;;;;;21.90;68.30;;;21.32;63.13;96298.53;4210463;33;20059;-82
2022/07/09 06:04:13;;;;;;;;;;;21.90;68.30;;;21.31;63.08;96292.13;4234442;33;19902;-82
2022/07/09 06:06:42;;;;;;;;;;;21.90;68.10;;;21.32;63.13;96292.97;4210907;33;20173;-82
2022/07/09 06:09:12;;;;;;;;;;;21.90;68.10;;;21.31;63.11;96296.91;4234311;33;20008;-82
2022/07/09 06:11:41;;;;;;;;;;;21.90;68.10;;;21.30;62.88;96293.28;4233745;33;19925;-82
2022/07/09 06:14:10;;;;;;;;;;;21.90;68.00;;;21.30;62.94;96290.50;4234378;33;20312;-82
2022/07/09 06:16:38;;;;;;;;;;;21.90;68.00;;;21.30;63.22;96289.69;4210844;33;20306;-82
2022/07/09 06:19:07;;;;;;;;;;;21.90;68.00;;;21.29;62.96;96285.28;4210832;33;19933;-82
2022/07/09 06:21:36;;;;;;;;;;;21.90;68.00;;;21.30;63.05;96286.91;4210213;33;19910;-82
2022/07/09 06:24:05;;;;;;;;;;;21.90;68.00;;;21.30;63.20;96289.69;4235161;33;20014;-82
2022/07/09 06:26:35;;;;;;;;;;;21.90;68.10;;;21.30;63.06;96284.13;4233773;33;20109;-82
2022/07/09 06:29:03;;;;;;;;;;;21.90;68.20;;;21.30;63.08;96289.69;4234259;33;20248;-82
2022/07/09 06:31:32;;;;;;;;;;;21.90;68.10;;;21.29;63.04;96283.34;4210061;33;19909;-81
2022/07/09 06:34:02;;;;;;;;;;;21.90;68.20;;;21.30;63.07;96292.50;4233992;33;19911;-82
2022/07/09 06:36:31;;;;;;;;;;;21.90;68.20;;;21.30;63.21;96289.69;4210897;33;20013;-82
2022/07/09 06:41:47;;;;;;;;;;;21.90;68.20;;;21.30;62.98;96281.34;4233431;33;19972;-82
2022/07/09 06:44:25;;;;;;;;;;;21.90;68.20;;;21.31;62.98;96291.34;4210100;33;19909;-82
2022/07/09 06:46:53;;;;;;;;;;;21.90;68.10;;;21.31;63.17;96289.34;4210484;33;20099;-82
2022/07/09 06:49:36;;;;;;;;;;;21.90;68.00;;;21.30;63.14;96290.50;4210450;33;19998;-82
2022/07/09 06:52:06;;;;;;;;;;;21.90;67.90;;;21.31;63.00;96275.44;4209841;33;19909;-82
2022/07/09 06:54:35;;;;;;;;;;;21.90;67.90;;;21.31;62.89;96278.22;4233912;33;19964;-82
2022/07/09 06:57:06;;;;;;;;;;;21.90;67.90;;;21.34;63.02;96285.09;4234792;33;19909;-82
2022/07/09 06:59:35;;;;;;;;;;;22.00;67.90;;;21.36;62.92;96279.19;4210314;33;20047;-81
2022/07/09 07:02:04;;;;;;;;;;;22.00;67.80;;;21.38;63.09;96285.22;4209669;33;20240;-82
2022/07/09 07:04:33;;;;;;;;;;;22.00;68.10;;;21.41;63.04;96284.56;4210460;33;19902;-82
2022/07/09 07:07:02;;;;;;;;;;;22.00;68.40;;;21.43;63.41;96283.06;4233798;33;19902;-82
2022/07/09 07:09:30;;;;;;;;;;;22.00;68.50;;;21.45;63.50;96279.91;4210330;33;19925;-82
2022/07/09 07:11:59;;;;;;;;;;;22.00;68.60;;;21.46;63.62;96276.81;4209631;33;20161;-82
2022/07/09 07:14:29;;;;;;;;;;;22.10;68.70;;;21.49;63.45;96282.84;4233710;33;20133;-82
2022/07/09 07:16:58;;;;;;;;;;;22.10;68.70;;;21.49;63.45;96282.84;4233649;33;20121;-82
2022/07/09 07:19:27;;;;;;;;;;;22.10;68.50;;;21.50;63.53;96287.25;4233625;33;20149;-82
2022/07/09 07:21:56;;;;;;;;;;;22.10;68.60;;;21.49;63.73;96286.44;4209439;33;20150;-81
2022/07/09 07:24:25;;;;;;;;;;;22.10;68.60;;;21.51;63.34;96277.75;4233480;33;19906;-82
2022/07/09 07:26:53;;;;;;;;;;;22.10;68.60;;;21.51;63.67;96280.53;4209930;33;20248;-82
2022/07/09 07:29:22;;;;;;;;;;;22.10;68.50;;;21.51;63.65;96283.31;4233438;33;20062;-82
2022/07/09 07:31:52;;;;;;;;;;;22.10;68.60;;;21.53;63.54;96289.34;4232795;33;20067;-82
2022/07/09 07:34:23;;;;;;;;;;;22.10;68.60;;;21.52;63.43;96287.72;4209431;33;19903;-82
2022/07/09 07:36:52;;;;;;;;;;;22.10;68.60;;;21.53;63.65;96289.34;4232710;33;19903;-82
2022/07/09 07:39:24;;;;;;;;;;;22.20;68.60;;;21.53;63.28;96289.34;4234297;33;20222;-82
2022/07/09 07:41:53;;;;;;;;;;;22.10;68.50;;;21.53;63.48;96292.97;4209212;33;20218;-82
2022/07/09 07:44:22;;;;;;;;;;;22.20;68.40;;;21.54;63.01;96293.78;4209850;33;20106;-82
2022/07/09 07:46:52;;;;;;;;;;;22.20;68.40;;;21.55;63.40;96295.41;4209802;33;19980;-82
2022/07/09 07:49:21;;;;;;;;;;;22.20;68.40;;;21.56;63.42;96291.47;4209783;33;20077;-82
2022/07/09 07:51:50;;;;;;;;;;;22.20;68.50;;;21.56;63.38;96297.03;4232537;33;20121;-82
2022/07/09 07:54:18;;;;;;;;;;;22.20;68.50;;;21.56;63.53;96291.47;4234191;33;20373;-81
2022/07/09 07:56:47;;;;;;;;;;;22.20;68.40;;;21.57;63.57;96293.09;4209692;33;19902;-82
2022/07/09 07:59:16;;;;;;;;;;;22.20;68.50;;;21.56;63.30;96295.06;4233236;33;19902;-82
2022/07/09 08:01:44;;;;;;;;;;;22.20;68.40;;;21.57;63.44;96296.69;4208905;33;19902;-82
2022/07/09 08:04:15;;;;;;;;;;;22.20;68.30;;;21.58;63.62;96294.75;4233100;33;20253;-82
2022/07/09 08:06:43;;;;;;;;;;;22.20;68.40;;;21.59;63.38;96301.94;4209612;33;20221;-82
2022/07/09 08:09:12;;;;;;;;;;;22.20;68.40;;;21.59;63.42;96299.16;4209600;33;19925;-82
2022/07/09 08:11:41;;;;;;;;;;;22.20;68.40;;;21.59;63.40;96293.59;4208917;33;19909;-82
2022/07/09 08:14:10;;;;;;;;;;;22.20;68.30;;;21.60;63.40;96286.91;4209592;33;19902;-82
2022/07/09 08:16:39;;;;;;;;;;;22.20;68.30;;;21.62;63.23;96290.16;4233028;33;20344;-82
2022/07/09 08:19:07;;;;;;;;;;;22.20;68.20;;;21.64;63.09;96287.81;4234038;33;19902;-83
2022/07/09 08:21:38;;;;;;;;;;;22.20;68.20;;;21.63;62.95;96288.97;4232482;33;20098;-82
2022/07/09 08:24:06;;;;;;;;;;;22.20;68.10;;;21.64;63.13;96290.59;4209422;33;20179;-82
2022/07/09 08:26:35;;;;;;;;;;;22.20;67.90;;;21.65;63.32;96300.59;4232991;33;19902;-82
2022/07/09 08:29:04;;;;;;;;;;;22.30;68.00;;;21.66;62.93;96299.44;4232819;33;19902;-82
2022/07/09 08:31:32;;;;;;;;;;;22.30;68.00;;;21.68;63.03;96301.91;4232318;33;19909;-83
2022/07/09 08:34:01;;;;;;;;;;;22.30;68.00;;;21.70;63.29;96296.78;4209460;33;19909;-82
2022/07/09 08:36:30;;;;;;;;;;;22.30;68.00;;;21.69;63.09;96298.78;4209313;33;20318;-83
2022/07/09 08:39:00;;;;;;;;;;;22.30;67.90;;;21.72;62.90;96303.66;4232932;33;19902;-83
2022/07/09 08:41:29;;;;;;;;;;;22.30;67.90;;;21.73;62.96;96296.94;4232248;33;19910;-83
2022/07/09 08:43:57;;;;;;;;;;;22.30;67.90;;;21.74;63.08;96293.00;4232892;33;20178;-82
2022/07/09 08:46:26;;;;;;;;;;;22.30;67.90;;;21.75;62.90;96300.19;4232664;33;20085;-82
2022/07/09 08:48:55;;;;;;;;;;;22.30;67.80;;;21.76;62.99;96295.44;4235005;33;19902;-83
2022/07/09 08:51:24;;;;;;;;;;;22.40;67.70;;;21.80;62.80;96290.00;4236858;33;19902;-83
2022/07/09 08:53:53;;;;;;;;;;;22.40;67.70;;;21.81;62.69;96291.63;4213717;33;20026;-82
2022/07/09 08:56:24;;;;;;;;;;;22.40;67.60;;;21.82;62.86;96288.47;4212935;33;20033;-82
2022/07/09 08:58:52;;;;;;;;;;;22.40;67.50;;;21.84;62.54;96286.16;4213991;33;20065;-82
2022/07/09 09:01:21;;;;;;;;;;;22.40;67.40;;;21.88;62.40;96286.31;4213380;33;19902;-83
2022/07/09 09:03:50;;;;;;;;;;;22.50;67.30;;;21.88;62.94;96280.75;4213778;33;19914;-83
2022/07/09 09:06:23;;;;;;;;;;;22.50;67.20;;;21.89;62.36;96274.00;4213711;33;19917;-82
2022/07/09 09:08:55;;;;;;;;;;;22.50;67.20;;;21.91;62.43;96271.69;4213693;33;20240;-82
2022/07/09 09:11:26;;;;;;;;;;;22.50;67.20;;;21.91;62.45;96271.69;4213234;33;20067;-83
2022/07/09 09:13:55;;;;;;;;;;;22.50;67.10;;;21.93;62.27;96274.94;4213670;33;19906;-83
2022/07/09 09:16:23;;;;;;;;;;;22.50;66.90;;;21.93;62.50;96272.16;4237240;33;20120;-82
2022/07/09 09:18:53;;;;;;;;;;;22.50;67.00;;;21.91;62.20;96269.72;4237210;33;20023;-83
2022/07/09 09:21:23;;;;;;;;;;;22.50;67.00;;;21.92;62.28;96260.22;4213243;33;19986;-80
2022/07/09 09:23:53;;;;;;;;;;;22.50;67.00;;;21.95;62.49;96269.84;4213618;33;19902;-82
2022/07/09 09:26:23;;;;;;;;;;;22.50;67.00;;;21.94;61.98;96268.22;4213545;33;19909;-82
2022/07/09 09:28:54;;;;;;;;;;;22.50;67.00;;;21.91;62.10;96269.72;4237995;33;19902;-83
2022/07/09 09:31:25;;;;;;;;;;;22.50;67.00;;;21.90;62.45;96258.91;4236695;33;20164;-82
2022/07/09 09:33:54;;;;;;;;;;;22.50;67.00;;;21.91;62.77;96249.38;4237973;33;19902;-82
2022/07/09 09:36:34;;;;;;;;;;;22.50;67.00;;;21.90;62.20;96247.75;4213636;33;19942;-82
2022/07/09 09:39:14;;;;;;;;;;;22.50;67.00;;;21.91;62.19;96258.56;4213527;33;19909;-83
2022/07/09 09:41:44;;;;;;;;;;;22.50;67.10;;;21.91;62.38;96253.00;4236418;33;19902;-83
2022/07/09 09:44:15;;;;;;;;;;;22.50;66.90;;;21.90;62.40;96253.31;4236655;33;20116;-83
2022/07/09 09:46:47;;;;;;;;;;;22.50;67.00;;;21.90;62.33;96251.38;4213573;33;20162;-83
2022/07/09 09:49:16;;;;;;;;;;;22.50;67.00;;;21.89;62.41;96249.75;4213715;33;20242;-83
2022/07/09 09:51:51;;;;;;;;;;;22.50;66.90;;;21.89;62.29;96243.34;4212984;33;20132;-83
2022/07/09 09:54:20;;;;;;;;;;;22.50;66.90;;;21.89;62.27;96237.75;4236819;33;20169;-83
2022/07/09 09:56:49;;;;;;;;;;;22.50;67.00;;;21.89;62.46;96237.75;4237868;33;19909;-83
2022/07/09 09:59:20;;;;;;;;;;;22.50;67.10;;;21.91;62.18;96232.66;4213431;33;19909;-83
2022/07/09 10:01:52;;;;;;;;;;;22.50;67.00;;;21.92;62.25;96231.50;4252781;28;20224;-85
2022/07/09 10:04:21;;;;;;;;;;;22.50;67.00;;;21.91;62.23;96229.88;4238673;33;20356;-85
2022/07/09 10:06:50;;;;;;;;;;;22.50;66.90;;;21.90;62.31;96219.88;4239347;33;20269;-85
2022/07/09 10:09:19;;;;;;;;;;;22.50;66.90;;;21.89;62.23;96224.66;4217150;33;20120;-84
2022/07/09 10:11:49;;;;;;;;;;;22.50;66.90;;;21.90;62.23;96219.88;4226814;33;19910;-85
2022/07/09 10:14:30;;;;;;;;;;;22.50;66.90;;;21.89;62.40;96216.28;4205820;33;19984;-85
2022/07/09 10:17:12;;;;;;;;;;;22.50;66.90;;;21.90;62.26;96212.34;4229662;33;19903;-85
2022/07/09 10:19:54;;;;;;;;;;;22.50;66.80;;;21.90;62.17;96211.53;4230190;33;19909;-85
2022/07/09 10:22:23;;;;;;;;;;;22.50;66.80;;;21.90;62.19;96208.72;4257074;33;19903;-87
2022/07/09 10:24:52;;;;;;;;;;;22.50;67.00;;;21.91;61.98;96207.56;4210739;33;19902;-85
2022/07/09 10:27:21;;;;;;;;;;;22.50;66.90;;;21.89;62.30;96198.75;4234041;33;20109;-85
2022/07/09 10:29:56;;;;;;;;;;;22.50;67.00;;;21.90;62.23;96198.41;4210734;33;19971;-85
2022/07/09 10:32:28;;;;;;;;;;;22.50;67.00;;;21.90;62.35;96192.84;4210244;33;19909;-85
2022/07/09 10:35:01;;;;;;;;;;;22.50;67.00;;;21.89;62.32;96199.56;4234361;33;19908;-85
2022/07/09 10:37:42;;;;;;;;;;;22.50;67.10;;;21.90;62.47;96200.38;4256804;33;19988;-85
2022/07/09 10:40:15;;;;;;;;;;;22.50;67.00;;;21.91;62.22;96196.44;4257680;33;20121;-85
2022/07/09 10:42:44;;;;;;;;;;;22.50;67.00;;;21.88;62.15;96181.22;4233332;33;20357;-86
2022/07/09 10:45:24;;;;;;;;;;;22.50;67.10;;;21.87;62.22;96196.31;4234941;33;19902;-84
2022/07/09 10:47:57;;;;;;;;;;;22.50;67.10;;;21.85;62.37;96195.84;4234146;33;20256;-85
2022/07/09 10:50:27;;;;;;;;;;;22.50;67.10;;;21.82;62.28;96188.16;4210705;33;19909;-85
2022/07/09 10:52:56;;;;;;;;;;;22.50;67.10;;;21.82;62.27;96190.16;4233387;33;19910;-84
2022/07/09 10:55:27;;;;;;;;;;;22.50;67.20;;;21.82;62.32;96187.34;4228887;33;19903;-85
2022/07/09 10:57:55;;;;;;;;;;;22.40;67.10;;;21.82;62.31;96181.78;4229267;33;20091;-86
2022/07/09 11:00:26;;;;;;;;;;;22.40;67.10;;;21.82;62.52;96187.34;4205581;33;20104;-85
2022/07/09 11:02:56;;;;;;;;;;;22.40;67.20;;;21.81;62.50;96180.16;4204980;33;20132;-84
2022/07/09 11:05:25;;;;;;;;;;;22.40;67.20;;;21.82;62.22;96182.59;4182384;33;20023;-84
2022/07/09 11:08:02;;;;;;;;;;;22.40;67.10;;;21.82;62.46;96181.78;4205423;33;19902;-84
2022/07/09 11:10:32;;;;;;;;;;;22.40;67.20;;;21.81;62.31;96175.41;4228602;33;20121;-84
2022/07/09 11:13:01;;;;;;;;;;;22.40;67.20;;;21.83;62.68;96175.06;4203423;33;19910;-85
2022/07/09 11:15:33;;;;;;;;;;;22.40;67.30;;;21.84;62.27;96166.34;4205109;33;19909;-85
2022/07/09 11:18:04;;;;;;;;;;;22.50;67.30;;;21.84;62.53;96169.13;4205342;33;20147;-84
2022/07/09 11:20:33;;;;;;;;;;;22.50;67.50;;;21.84;62.63;96162.75;4182366;33;19910;-85
2022/07/09 11:23:02;;;;;;;;;;;22.50;67.50;;;21.85;62.57;96161.59;4204568;33;20241;-85
2022/07/09 11:25:31;;;;;;;;;;;22.50;67.30;;;21.85;62.67;96162.41;4228774;33;19903;-84
2022/07/09 11:28:00;;;;;;;;;;;22.40;67.30;;;21.85;62.43;96161.59;4205265;33;19909;-85
2022/07/09 11:30:32;;;;;;;;;;;22.50;67.30;;;21.84;62.30;96157.97;4205262;33;20023;-84